N177LN EDFE-ELLX
Flight info
| Callsign | N177LN |
|---|---|
| Flight time | N/A |
| Altitude | 20000 |
| Route | 495236N0084324E DCT RID DCT EDRQ DCT 493402N0070417E DCT 493236N0062214E DCT 493534N0061507E |
| Aircraft | SF50/L-SDGRWY/L |
Departure
| Time | 2026-05-08 08:09 |
|---|---|
| Airport | Frankfurt-Egelsbach Airport (EDFE) |
Arrival
| Time | N/A |
|---|---|
| Airport | Luxembourg-Findel International Airport (ELLX) |
| Time | Latitude | Longitude | Altitude | Speed | Heading |
|---|---|---|---|---|---|
| 2026-05-08 08:05 | 49.96200 | 8.64234 | 387 ft | 0 kts | 86° |
| 2026-05-08 08:05 | 49.96200 | 8.64235 | 388 ft | 1 kts | 87° |
| 2026-05-08 08:06 | 49.96200 | 8.64238 | 388 ft | 0 kts | 85° |
| 2026-05-08 08:06 | 49.96186 | 8.64256 | 388 ft | 11 kts | 175° |
| 2026-05-08 08:06 | 49.96160 | 8.64061 | 390 ft | 20 kts | 266° |
| 2026-05-08 08:06 | 49.96152 | 8.63856 | 385 ft | 18 kts | 266° |
| 2026-05-08 08:07 | 49.96145 | 8.63685 | 385 ft | 14 kts | 265° |
| 2026-05-08 08:07 | 49.96137 | 8.63560 | 384 ft | 10 kts | 268° |
| 2026-05-08 08:07 | 49.96136 | 8.63523 | 384 ft | 12 kts | 265° |
| 2026-05-08 08:07 | 49.96130 | 8.63383 | 381 ft | 18 kts | 265° |
| 2026-05-08 08:08 | 49.96096 | 8.63225 | 383 ft | 13 kts | 222° |
| 2026-05-08 08:08 | 49.96041 | 8.63210 | 384 ft | 8 kts | 102° |
| 2026-05-08 08:08 | 49.96040 | 8.63223 | 384 ft | 0 kts | 82° |
| 2026-05-08 08:08 | 49.96040 | 8.63287 | 384 ft | 29 kts | 88° |
| 2026-05-08 08:09 | 49.96074 | 8.63959 | 403 ft | 90 kts | 84° |
| 2026-05-08 08:09 | 49.96132 | 8.64989 | 807 ft | 98 kts | 82° |
| 2026-05-08 08:09 | 49.95987 | 8.65987 | 1335 ft | 101 kts | 138° |
| 2026-05-08 08:09 | 49.95518 | 8.66222 | 1621 ft | 110 kts | 169° |
| 2026-05-08 08:10 | 49.94786 | 8.66250 | 2179 ft | 109 kts | 195° |
| 2026-05-08 08:10 | 49.94282 | 8.64887 | 2708 ft | 122 kts | 262° |
| 2026-05-08 08:10 | 49.94172 | 8.63602 | 3243 ft | 117 kts | 262° |
| 2026-05-08 08:10 | 49.94074 | 8.62731 | 3416 ft | 131 kts | 264° |
| 2026-05-08 08:11 | 49.94294 | 8.61274 | 3556 ft | 152 kts | 298° |
| 2026-05-08 08:11 | 49.94811 | 8.59720 | 3607 ft | 171 kts | 297° |
| 2026-05-08 08:11 | 49.95361 | 8.58004 | 3814 ft | 174 kts | 298° |
| 2026-05-08 08:11 | 49.95867 | 8.56303 | 4246 ft | 177 kts | 289° |
| 2026-05-08 08:12 | 49.96094 | 8.54439 | 5032 ft | 173 kts | 272° |
| 2026-05-08 08:12 | 49.96105 | 8.52560 | 5673 ft | 175 kts | 270° |
| 2026-05-08 08:12 | 49.96115 | 8.50670 | 6329 ft | 175 kts | 270° |
| 2026-05-08 08:12 | 49.96126 | 8.48779 | 6919 ft | 176 kts | 270° |
| 2026-05-08 08:13 | 49.96134 | 8.46900 | 7457 ft | 177 kts | 268° |
| 2026-05-08 08:13 | 49.96098 | 8.44957 | 7985 ft | 178 kts | 268° |
| 2026-05-08 08:13 | 49.96089 | 8.43055 | 8514 ft | 179 kts | 268° |
| 2026-05-08 08:13 | 49.96070 | 8.41116 | 9020 ft | 181 kts | 268° |
| 2026-05-08 08:14 | 49.96046 | 8.39162 | 9516 ft | 182 kts | 268° |
| 2026-05-08 08:14 | 49.96023 | 8.37184 | 10006 ft | 184 kts | 267° |
| 2026-05-08 08:14 | 49.95999 | 8.35198 | 10445 ft | 185 kts | 267° |
| 2026-05-08 08:14 | 49.95973 | 8.33177 | 10886 ft | 186 kts | 268° |
| 2026-05-08 08:15 | 49.95948 | 8.31135 | 11330 ft | 187 kts | 268° |
| 2026-05-08 08:15 | 49.95921 | 8.29113 | 11775 ft | 187 kts | 268° |
| 2026-05-08 08:15 | 49.95894 | 8.27055 | 12220 ft | 189 kts | 268° |
| 2026-05-08 08:15 | 49.95868 | 8.25007 | 12671 ft | 190 kts | 268° |
| 2026-05-08 08:16 | 49.95840 | 8.22952 | 13119 ft | 191 kts | 268° |
| 2026-05-08 08:16 | 49.95812 | 8.20884 | 13572 ft | 192 kts | 268° |
| 2026-05-08 08:16 | 49.95783 | 8.18803 | 14014 ft | 193 kts | 268° |
| 2026-05-08 08:16 | 49.95755 | 8.16737 | 14413 ft | 194 kts | 269° |
| 2026-05-08 08:17 | 49.95737 | 8.15321 | 14683 ft | 195 kts | 268° |
| 2026-05-08 08:17 | 49.95696 | 8.12525 | 15230 ft | 196 kts | 268° |
| 2026-05-08 08:17 | 49.95667 | 8.10380 | 15655 ft | 196 kts | 268° |
| 2026-05-08 08:17 | 49.95647 | 8.08977 | 15930 ft | 197 kts | 268° |
| 2026-05-08 08:18 | 49.95637 | 8.08251 | 15996 ft | 202 kts | 268° |
| 2026-05-08 08:18 | 49.95605 | 8.05981 | 16007 ft | 217 kts | 268° |
| 2026-05-08 08:18 | 49.95593 | 8.05218 | 16012 ft | 220 kts | 268° |
| 2026-05-08 08:18 | 49.95508 | 7.99581 | 16122 ft | 223 kts | 268° |